sensor_id;sensor_type;location;lat;lon;timestamp;P1;durP1;ratioP1;P2;durP2;ratioP2
70549;SDS011;58101;48.658;2.328;2023-02-20T00:01:20;46.08;;;18.83;;
70549;SDS011;58101;48.658;2.328;2023-02-20T00:03:46;47.50;;;19.50;;
70549;SDS011;58101;48.658;2.328;2023-02-20T00:06:12;46.75;;;18.48;;
70549;SDS011;58101;48.658;2.328;2023-02-20T00:08:37;42.80;;;18.33;;
70549;SDS011;58101;48.658;2.328;2023-02-20T00:11:03;43.17;;;17.15;;
70549;SDS011;58101;48.658;2.328;2023-02-20T00:13:29;44.85;;;17.35;;
70549;SDS011;58101;48.658;2.328;2023-02-20T00:15:54;41.80;;;16.95;;
70549;SDS011;58101;48.658;2.328;2023-02-20T00:18:20;39.88;;;16.98;;
70549;SDS011;58101;48.658;2.328;2023-02-20T00:20:46;38.22;;;16.42;;
70549;SDS011;58101;48.658;2.328;2023-02-20T00:23:11;40.90;;;16.90;;
70549;SDS011;58101;48.658;2.328;2023-02-20T00:25:37;39.50;;;16.73;;
70549;SDS011;58101;48.658;2.328;2023-02-20T00:28:03;39.30;;;16.05;;
70549;SDS011;58101;48.658;2.328;2023-02-20T00:30:29;41.15;;;16.63;;
70549;SDS011;58101;48.658;2.328;2023-02-20T00:32:55;36.83;;;15.52;;
70549;SDS011;58101;48.658;2.328;2023-02-20T00:35:22;40.17;;;16.40;;
70549;SDS011;58101;48.658;2.328;2023-02-20T00:37:49;34.63;;;15.65;;
70549;SDS011;58101;48.658;2.328;2023-02-20T00:40:15;36.28;;;16.05;;
70549;SDS011;58101;48.658;2.328;2023-02-20T00:45:07;37.72;;;15.75;;
70549;SDS011;58101;48.658;2.328;2023-02-20T00:47:34;37.33;;;15.45;;
70549;SDS011;58101;48.658;2.328;2023-02-20T00:49:59;45.03;;;17.48;;
70549;SDS011;58101;48.658;2.328;2023-02-20T00:52:25;35.60;;;16.25;;
70549;SDS011;58101;48.658;2.328;2023-02-20T00:54:51;37.17;;;16.95;;
70549;SDS011;58101;48.658;2.328;2023-02-20T00:57:16;38.15;;;16.13;;
70549;SDS011;58101;48.658;2.328;2023-02-20T00:59:42;38.30;;;16.23;;
70549;SDS011;58101;48.658;2.328;2023-02-20T01:02:07;40.65;;;16.80;;
70549;SDS011;58101;48.658;2.328;2023-02-20T01:04:34;38.45;;;15.18;;
70549;SDS011;58101;48.658;2.328;2023-02-20T01:06:59;34.05;;;15.43;;
70549;SDS011;58101;48.658;2.328;2023-02-20T01:09:25;35.88;;;15.00;;
70549;SDS011;58101;48.658;2.328;2023-02-20T01:11:52;36.97;;;15.25;;
70549;SDS011;58101;48.658;2.328;2023-02-20T01:14:18;37.63;;;15.52;;
70549;SDS011;58101;48.658;2.328;2023-02-20T01:16:49;35.08;;;15.32;;
70549;SDS011;58101;48.658;2.328;2023-02-20T01:19:17;38.13;;;15.07;;
70549;SDS011;58101;48.658;2.328;2023-02-20T01:21:47;37.65;;;15.30;;
70549;SDS011;58101;48.658;2.328;2023-02-20T01:24:14;36.38;;;14.32;;
70549;SDS011;58101;48.658;2.328;2023-02-20T01:26:41;35.55;;;14.43;;
70549;SDS011;58101;48.658;2.328;2023-02-20T01:29:07;36.15;;;13.88;;
70549;SDS011;58101;48.658;2.328;2023-02-20T01:31:33;35.00;;;13.88;;
70549;SDS011;58101;48.658;2.328;2023-02-20T01:33:58;32.25;;;13.13;;
70549;SDS011;58101;48.658;2.328;2023-02-20T01:36:24;32.50;;;13.20;;
70549;SDS011;58101;48.658;2.328;2023-02-20T01:38:51;30.17;;;13.18;;
70549;SDS011;58101;48.658;2.328;2023-02-20T01:41:18;31.88;;;12.88;;
70549;SDS011;58101;48.658;2.328;2023-02-20T01:43:44;32.08;;;12.55;;
70549;SDS011;58101;48.658;2.328;2023-02-20T01:48:58;28.67;;;11.43;;
70549;SDS011;58101;48.658;2.328;2023-02-20T01:51:31;26.92;;;11.02;;
70549;SDS011;58101;48.658;2.328;2023-02-20T01:54:01;28.85;;;10.98;;
70549;SDS011;58101;48.658;2.328;2023-02-20T01:56:28;29.27;;;10.93;;
70549;SDS011;58101;48.658;2.328;2023-02-20T01:58:54;24.70;;;11.48;;
70549;SDS011;58101;48.658;2.328;2023-02-20T02:01:19;23.65;;;10.27;;
70549;SDS011;58101;48.658;2.328;2023-02-20T02:03:46;28.83;;;11.00;;
70549;SDS011;58101;48.658;2.328;2023-02-20T02:06:16;25.98;;;10.57;;
70549;SDS011;58101;48.658;2.328;2023-02-20T02:08:42;25.90;;;10.52;;
70549;SDS011;58101;48.658;2.328;2023-02-20T02:11:09;24.23;;;9.85;;
70549;SDS011;58101;48.658;2.328;2023-02-20T02:13:44;25.02;;;10.57;;
70549;SDS011;58101;48.658;2.328;2023-02-20T02:37:57;28.77;;;10.00;;
70549;SDS011;58101;48.658;2.328;2023-02-20T02:40:44;24.08;;;9.88;;
70549;SDS011;58101;48.658;2.328;2023-02-20T02:43:21;27.10;;;9.85;;
70549;SDS011;58101;48.658;2.328;2023-02-20T02:49:02;23.33;;;9.93;;
70549;SDS011;58101;48.658;2.328;2023-02-20T02:51:36;27.48;;;10.70;;
70549;SDS011;58101;48.658;2.328;2023-02-20T02:54:08;23.23;;;10.32;;
70549;SDS011;58101;48.658;2.328;2023-02-20T02:56:46;19.17;;;9.20;;
70549;SDS011;58101;48.658;2.328;2023-02-20T02:59:14;23.75;;;9.88;;
70549;SDS011;58101;48.658;2.328;2023-02-20T03:01:46;24.83;;;10.25;;
70549;SDS011;58101;48.658;2.328;2023-02-20T03:04:17;25.70;;;9.48;;
70549;SDS011;58101;48.658;2.328;2023-02-20T03:06:47;24.15;;;9.57;;
70549;SDS011;58101;48.658;2.328;2023-02-20T03:09:42;24.65;;;9.85;;
70549;SDS011;58101;48.658;2.328;2023-02-20T03:12:26;25.77;;;9.85;;
70549;SDS011;58101;48.658;2.328;2023-02-20T03:15:13;23.83;;;9.60;;
70549;SDS011;58101;48.658;2.328;2023-02-20T03:20:35;24.05;;;9.77;;
70549;SDS011;58101;48.658;2.328;2023-02-20T03:23:03;23.52;;;9.77;;
70549;SDS011;58101;48.658;2.328;2023-02-20T03:25:38;27.45;;;9.95;;
70549;SDS011;58101;48.658;2.328;2023-02-20T03:28:27;24.40;;;9.55;;
70549;SDS011;58101;48.658;2.328;2023-02-20T03:31:01;25.63;;;10.15;;
70549;SDS011;58101;48.658;2.328;2023-02-20T03:33:33;25.17;;;10.20;;
70549;SDS011;58101;48.658;2.328;2023-02-20T03:36:31;26.00;;;10.75;;
70549;SDS011;58101;48.658;2.328;2023-02-20T03:39:22;29.08;;;10.25;;
70549;SDS011;58101;48.658;2.328;2023-02-20T03:42:11;22.33;;;9.40;;
70549;SDS011;58101;48.658;2.328;2023-02-20T03:44:58;30.00;;;10.00;;
70549;SDS011;58101;48.658;2.328;2023-02-20T03:49:52;22.40;;;10.15;;
70549;SDS011;58101;48.658;2.328;2023-02-20T03:52:20;24.02;;;11.13;;
70549;SDS011;58101;48.658;2.328;2023-02-20T03:54:46;23.52;;;9.98;;
70549;SDS011;58101;48.658;2.328;2023-02-20T03:57:18;25.80;;;10.25;;
70549;SDS011;58101;48.658;2.328;2023-02-20T03:59:52;26.42;;;9.60;;
70549;SDS011;58101;48.658;2.328;2023-02-20T04:02:23;25.48;;;10.18;;
70549;SDS011;58101;48.658;2.328;2023-02-20T04:04:56;23.33;;;9.98;;
70549;SDS011;58101;48.658;2.328;2023-02-20T04:07:29;24.52;;;9.55;;
70549;SDS011;58101;48.658;2.328;2023-02-20T04:10:01;27.77;;;10.80;;
70549;SDS011;58101;48.658;2.328;2023-02-20T04:12:32;23.27;;;9.43;;
70549;SDS011;58101;48.658;2.328;2023-02-20T04:15:02;25.48;;;9.85;;
70549;SDS011;58101;48.658;2.328;2023-02-20T04:17:30;27.13;;;10.48;;
70549;SDS011;58101;48.658;2.328;2023-02-20T04:20:01;23.75;;;9.80;;
70549;SDS011;58101;48.658;2.328;2023-02-20T04:22:27;24.20;;;10.10;;
70549;SDS011;58101;48.658;2.328;2023-02-20T04:25:00;25.10;;;9.65;;
70549;SDS011;58101;48.658;2.328;2023-02-20T04:27:52;22.75;;;9.45;;
70549;SDS011;58101;48.658;2.328;2023-02-20T04:30:18;25.17;;;9.77;;
70549;SDS011;58101;48.658;2.328;2023-02-20T04:32:44;29.55;;;9.80;;
70549;SDS011;58101;48.658;2.328;2023-02-20T04:35:14;24.38;;;9.73;;
70549;SDS011;58101;48.658;2.328;2023-02-20T04:37:41;23.58;;;10.13;;
70549;SDS011;58101;48.658;2.328;2023-02-20T04:40:08;25.65;;;10.13;;
70549;SDS011;58101;48.658;2.328;2023-02-20T04:42:35;25.90;;;9.82;;
70549;SDS011;58101;48.658;2.328;2023-02-20T04:45:01;23.25;;;9.85;;
70549;SDS011;58101;48.658;2.328;2023-02-20T04:47:26;25.83;;;9.48;;
70549;SDS011;58101;48.658;2.328;2023-02-20T04:49:52;25.30;;;10.15;;
70549;SDS011;58101;48.658;2.328;2023-02-20T04:52:17;25.88;;;9.95;;
70549;SDS011;58101;48.658;2.328;2023-02-20T04:54:43;23.15;;;9.45;;
70549;SDS011;58101;48.658;2.328;2023-02-20T04:57:09;22.45;;;9.60;;
70549;SDS011;58101;48.658;2.328;2023-02-20T04:59:34;22.95;;;9.10;;
70549;SDS011;58101;48.658;2.328;2023-02-20T05:02:00;21.60;;;9.25;;
70549;SDS011;58101;48.658;2.328;2023-02-20T05:04:26;24.65;;;9.73;;
70549;SDS011;58101;48.658;2.328;2023-02-20T05:06:53;22.05;;;9.25;;
70549;SDS011;58101;48.658;2.328;2023-02-20T05:09:20;24.65;;;9.70;;
70549;SDS011;58101;48.658;2.328;2023-02-20T05:11:46;25.27;;;9.85;;
70549;SDS011;58101;48.658;2.328;2023-02-20T05:14:12;33.72;;;9.52;;
70549;SDS011;58101;48.658;2.328;2023-02-20T05:16:38;23.30;;;8.65;;
70549;SDS011;58101;48.658;2.328;2023-02-20T05:19:04;25.35;;;9.32;;
70549;SDS011;58101;48.658;2.328;2023-02-20T05:21:31;24.10;;;9.05;;
70549;SDS011;58101;48.658;2.328;2023-02-20T05:24:15;25.80;;;9.32;;
70549;SDS011;58101;48.658;2.328;2023-02-20T05:26:41;24.38;;;9.50;;
70549;SDS011;58101;48.658;2.328;2023-02-20T05:29:06;27.00;;;8.90;;
70549;SDS011;58101;48.658;2.328;2023-02-20T05:33:59;22.65;;;8.30;;
70549;SDS011;58101;48.658;2.328;2023-02-20T05:36:25;20.80;;;9.02;;
70549;SDS011;58101;48.658;2.328;2023-02-20T05:38:51;24.63;;;8.82;;
70549;SDS011;58101;48.658;2.328;2023-02-20T05:41:17;23.08;;;9.05;;
70549;SDS011;58101;48.658;2.328;2023-02-20T05:43:44;24.17;;;8.38;;
70549;SDS011;58101;48.658;2.328;2023-02-20T05:46:10;24.38;;;8.98;;
70549;SDS011;58101;48.658;2.328;2023-02-20T05:48:36;27.17;;;8.57;;
70549;SDS011;58101;48.658;2.328;2023-02-20T05:51:02;22.55;;;9.05;;
70549;SDS011;58101;48.658;2.328;2023-02-20T05:53:28;22.75;;;9.55;;
70549;SDS011;58101;48.658;2.328;2023-02-20T05:55:54;20.52;;;8.98;;
70549;SDS011;58101;48.658;2.328;2023-02-20T05:58:20;22.10;;;8.63;;
70549;SDS011;58101;48.658;2.328;2023-02-20T06:00:46;23.10;;;8.90;;
70549;SDS011;58101;48.658;2.328;2023-02-20T06:03:13;23.50;;;9.25;;
70549;SDS011;58101;48.658;2.328;2023-02-20T06:05:39;22.45;;;9.80;;
70549;SDS011;58101;48.658;2.328;2023-02-20T06:08:05;26.27;;;9.15;;
70549;SDS011;58101;48.658;2.328;2023-02-20T06:10:31;24.48;;;8.68;;
70549;SDS011;58101;48.658;2.328;2023-02-20T06:12:57;22.98;;;9.02;;
70549;SDS011;58101;48.658;2.328;2023-02-20T06:15:23;21.48;;;9.18;;
70549;SDS011;58101;48.658;2.328;2023-02-20T06:17:49;24.90;;;9.20;;
70549;SDS011;58101;48.658;2.328;2023-02-20T06:20:14;24.45;;;8.98;;
70549;SDS011;58101;48.658;2.328;2023-02-20T06:22:40;26.27;;;8.77;;
70549;SDS011;58101;48.658;2.328;2023-02-20T06:25:06;23.65;;;9.05;;
70549;SDS011;58101;48.658;2.328;2023-02-20T06:27:32;23.85;;;9.18;;
70549;SDS011;58101;48.658;2.328;2023-02-20T06:29:57;24.67;;;8.75;;
70549;SDS011;58101;48.658;2.328;2023-02-20T06:32:23;24.60;;;8.80;;
70549;SDS011;58101;48.658;2.328;2023-02-20T06:34:49;23.58;;;8.38;;
70549;SDS011;58101;48.658;2.328;2023-02-20T06:37:18;21.75;;;8.32;;
70549;SDS011;58101;48.658;2.328;2023-02-20T06:39:43;23.25;;;8.18;;
70549;SDS011;58101;48.658;2.328;2023-02-20T06:42:12;23.88;;;8.73;;
70549;SDS011;58101;48.658;2.328;2023-02-20T06:44:37;23.10;;;8.38;;
70549;SDS011;58101;48.658;2.328;2023-02-20T06:47:03;22.52;;;8.50;;
70549;SDS011;58101;48.658;2.328;2023-02-20T06:49:33;20.15;;;8.07;;
70549;SDS011;58101;48.658;2.328;2023-02-20T06:52:00;23.08;;;9.30;;
70549;SDS011;58101;48.658;2.328;2023-02-20T06:54:25;26.00;;;8.80;;
70549;SDS011;58101;48.658;2.328;2023-02-20T06:56:51;24.88;;;8.90;;
70549;SDS011;58101;48.658;2.328;2023-02-20T06:59:28;25.83;;;9.80;;
70549;SDS011;58101;48.658;2.328;2023-02-20T07:02:07;26.10;;;9.07;;
70549;SDS011;58101;48.658;2.328;2023-02-20T07:04:39;21.52;;;9.13;;
70549;SDS011;58101;48.658;2.328;2023-02-20T07:07:05;23.98;;;9.77;;
70549;SDS011;58101;48.658;2.328;2023-02-20T07:09:33;25.20;;;10.40;;
70549;SDS011;58101;48.658;2.328;2023-02-20T07:11:59;26.50;;;9.90;;
70549;SDS011;58101;48.658;2.328;2023-02-20T07:14:25;25.83;;;10.63;;
70549;SDS011;58101;48.658;2.328;2023-02-20T07:16:55;28.02;;;10.75;;
70549;SDS011;58101;48.658;2.328;2023-02-20T07:19:20;28.10;;;11.57;;
70549;SDS011;58101;48.658;2.328;2023-02-20T07:21:46;26.02;;;10.85;;
70549;SDS011;58101;48.658;2.328;2023-02-20T07:24:12;30.25;;;10.88;;
70549;SDS011;58101;48.658;2.328;2023-02-20T07:26:37;27.10;;;11.75;;
70549;SDS011;58101;48.658;2.328;2023-02-20T07:29:04;29.73;;;10.90;;
70549;SDS011;58101;48.658;2.328;2023-02-20T07:31:30;24.88;;;10.38;;
70549;SDS011;58101;48.658;2.328;2023-02-20T07:33:56;28.20;;;10.70;;
70549;SDS011;58101;48.658;2.328;2023-02-20T07:36:22;27.13;;;10.40;;
70549;SDS011;58101;48.658;2.328;2023-02-20T07:38:55;22.85;;;10.65;;
70549;SDS011;58101;48.658;2.328;2023-02-20T07:41:22;23.98;;;9.63;;
70549;SDS011;58101;48.658;2.328;2023-02-20T07:46:14;28.88;;;9.30;;
70549;SDS011;58101;48.658;2.328;2023-02-20T07:48:40;25.00;;;9.13;;
70549;SDS011;58101;48.658;2.328;2023-02-20T07:51:06;25.52;;;9.15;;
70549;SDS011;58101;48.658;2.328;2023-02-20T07:53:39;26.05;;;11.05;;
70549;SDS011;58101;48.658;2.328;2023-02-20T07:56:05;27.95;;;10.52;;
70549;SDS011;58101;48.658;2.328;2023-02-20T07:58:30;25.40;;;10.52;;
70549;SDS011;58101;48.658;2.328;2023-02-20T08:00:56;27.48;;;10.90;;
70549;SDS011;58101;48.658;2.328;2023-02-20T08:03:22;23.15;;;10.07;;
70549;SDS011;58101;48.658;2.328;2023-02-20T08:05:47;30.23;;;10.25;;
70549;SDS011;58101;48.658;2.328;2023-02-20T08:08:13;22.80;;;9.60;;
70549;SDS011;58101;48.658;2.328;2023-02-20T08:10:39;18.73;;;8.60;;
70549;SDS011;58101;48.658;2.328;2023-02-20T08:13:04;19.13;;;8.30;;
70549;SDS011;58101;48.658;2.328;2023-02-20T08:15:30;20.40;;;8.38;;
70549;SDS011;58101;48.658;2.328;2023-02-20T08:17:55;20.48;;;9.20;;
70549;SDS011;58101;48.658;2.328;2023-02-20T08:20:21;16.27;;;8.02;;
70549;SDS011;58101;48.658;2.328;2023-02-20T08:22:47;17.63;;;8.93;;
70549;SDS011;58101;48.658;2.328;2023-02-20T08:25:17;16.85;;;8.38;;
70549;SDS011;58101;48.658;2.328;2023-02-20T08:28:01;15.85;;;9.05;;
70549;SDS011;58101;48.658;2.328;2023-02-20T08:30:26;16.08;;;8.82;;
70549;SDS011;58101;48.658;2.328;2023-02-20T08:32:53;16.25;;;10.02;;
70549;SDS011;58101;48.658;2.328;2023-02-20T08:35:19;12.30;;;7.20;;
70549;SDS011;58101;48.658;2.328;2023-02-20T08:37:48;12.18;;;6.50;;
70549;SDS011;58101;48.658;2.328;2023-02-20T08:40:14;12.23;;;6.13;;
70549;SDS011;58101;48.658;2.328;2023-02-20T08:42:40;14.45;;;6.40;;
70549;SDS011;58101;48.658;2.328;2023-02-20T08:45:06;12.15;;;6.35;;
70549;SDS011;58101;48.658;2.328;2023-02-20T08:47:32;14.18;;;7.05;;
70549;SDS011;58101;48.658;2.328;2023-02-20T08:49:58;12.30;;;6.47;;
70549;SDS011;58101;48.658;2.328;2023-02-20T08:52:24;10.27;;;6.18;;
70549;SDS011;58101;48.658;2.328;2023-02-20T08:54:50;14.57;;;6.60;;
70549;SDS011;58101;48.658;2.328;2023-02-20T08:57:16;12.85;;;6.78;;
70549;SDS011;58101;48.658;2.328;2023-02-20T08:59:42;10.73;;;5.78;;
70549;SDS011;58101;48.658;2.328;2023-02-20T09:02:14;11.02;;;5.80;;
70549;SDS011;58101;48.658;2.328;2023-02-20T09:04:52;11.82;;;6.18;;
70549;SDS011;58101;48.658;2.328;2023-02-20T09:09:44;10.35;;;5.65;;
70549;SDS011;58101;48.658;2.328;2023-02-20T09:12:09;11.50;;;5.85;;
70549;SDS011;58101;48.658;2.328;2023-02-20T09:17:02;11.73;;;6.00;;
70549;SDS011;58101;48.658;2.328;2023-02-20T09:19:29;12.52;;;5.80;;
70549;SDS011;58101;48.658;2.328;2023-02-20T09:24:20;11.52;;;5.47;;
70549;SDS011;58101;48.658;2.328;2023-02-20T09:29:11;11.77;;;5.75;;
70549;SDS011;58101;48.658;2.328;2023-02-20T09:34:02;11.48;;;5.88;;
70549;SDS011;58101;48.658;2.328;2023-02-20T09:38:54;11.13;;;5.20;;
70549;SDS011;58101;48.658;2.328;2023-02-20T09:43:55;10.55;;;5.50;;
70549;SDS011;58101;48.658;2.328;2023-02-20T09:46:27;10.60;;;5.63;;
70549;SDS011;58101;48.658;2.328;2023-02-20T09:51:29;11.40;;;5.30;;
70549;SDS011;58101;48.658;2.328;2023-02-20T09:54:02;11.85;;;5.47;;
70549;SDS011;58101;48.658;2.328;2023-02-20T09:56:37;10.77;;;5.43;;
70549;SDS011;58101;48.658;2.328;2023-02-20T10:02:15;11.98;;;5.43;;
70549;SDS011;58101;48.658;2.328;2023-02-20T10:04:42;10.73;;;5.20;;
70549;SDS011;58101;48.658;2.328;2023-02-20T10:10:16;11.52;;;5.10;;
70549;SDS011;58101;48.658;2.328;2023-02-20T10:12:51;10.40;;;4.88;;
70549;SDS011;58101;48.658;2.328;2023-02-20T10:26:13;11.13;;;4.50;;
70549;SDS011;58101;48.658;2.328;2023-02-20T10:28:58;10.57;;;4.30;;
70549;SDS011;58101;48.658;2.328;2023-02-20T10:31:40;10.25;;;3.90;;
70549;SDS011;58101;48.658;2.328;2023-02-20T10:34:13;12.57;;;4.13;;
70549;SDS011;58101;48.658;2.328;2023-02-20T10:36:47;11.45;;;3.78;;
70549;SDS011;58101;48.658;2.328;2023-02-20T10:39:19;11.73;;;3.83;;
70549;SDS011;58101;48.658;2.328;2023-02-20T10:41:53;9.73;;;4.05;;
70549;SDS011;58101;48.658;2.328;2023-02-20T10:44:44;9.88;;;3.90;;
70549;SDS011;58101;48.658;2.328;2023-02-20T10:52:34;12.30;;;4.20;;
70549;SDS011;58101;48.658;2.328;2023-02-20T11:00:12;11.27;;;3.72;;
70549;SDS011;58101;48.658;2.328;2023-02-20T11:02:43;9.15;;;3.50;;
70549;SDS011;58101;48.658;2.328;2023-02-20T11:05:15;9.00;;;3.33;;
70549;SDS011;58101;48.658;2.328;2023-02-20T11:07:43;11.35;;;3.83;;
70549;SDS011;58101;48.658;2.328;2023-02-20T11:10:09;9.68;;;3.35;;
70549;SDS011;58101;48.658;2.328;2023-02-20T11:15:25;12.40;;;3.72;;
70549;SDS011;58101;48.658;2.328;2023-02-20T11:17:55;10.57;;;3.70;;
70549;SDS011;58101;48.658;2.328;2023-02-20T11:23:02;9.40;;;3.40;;
70549;SDS011;58101;48.658;2.328;2023-02-20T11:28:21;10.23;;;3.20;;
70549;SDS011;58101;48.658;2.328;2023-02-20T11:30:59;10.25;;;3.08;;
70549;SDS011;58101;48.658;2.328;2023-02-20T11:33:29;11.60;;;3.45;;
70549;SDS011;58101;48.658;2.328;2023-02-20T11:35:57;10.30;;;3.25;;
70549;SDS011;58101;48.658;2.328;2023-02-20T11:38:38;10.52;;;2.80;;
70549;SDS011;58101;48.658;2.328;2023-02-20T11:43:42;7.75;;;2.88;;
70549;SDS011;58101;48.658;2.328;2023-02-20T11:46:13;8.52;;;2.60;;
70549;SDS011;58101;48.658;2.328;2023-02-20T11:51:45;9.13;;;2.72;;
70549;SDS011;58101;48.658;2.328;2023-02-20T11:54:20;10.18;;;2.80;;
70549;SDS011;58101;48.658;2.328;2023-02-20T11:59:30;9.82;;;3.17;;
70549;SDS011;58101;48.658;2.328;2023-02-20T12:07:34;8.52;;;2.90;;
70549;SDS011;58101;48.658;2.328;2023-02-20T12:10:08;8.77;;;2.60;;
70549;SDS011;58101;48.658;2.328;2023-02-20T12:12:51;8.48;;;2.60;;
70549;SDS011;58101;48.658;2.328;2023-02-20T12:15:19;8.10;;;2.42;;
70549;SDS011;58101;48.658;2.328;2023-02-20T12:20:32;7.38;;;2.30;;
70549;SDS011;58101;48.658;2.328;2023-02-20T12:25:56;7.57;;;2.15;;
70549;SDS011;58101;48.658;2.328;2023-02-20T12:29:04;7.72;;;1.90;;
70549;SDS011;58101;48.658;2.328;2023-02-20T12:31:50;6.45;;;1.80;;
70549;SDS011;58101;48.658;2.328;2023-02-20T12:34:47;6.53;;;1.95;;
70549;SDS011;58101;48.658;2.328;2023-02-20T12:40:06;8.73;;;2.10;;
70549;SDS011;58101;48.658;2.328;2023-02-20T12:46:03;9.05;;;2.47;;
70549;SDS011;58101;48.658;2.328;2023-02-20T12:57:20;9.35;;;2.60;;
70549;SDS011;58101;48.658;2.328;2023-02-20T13:02:47;8.10;;;2.03;;
70549;SDS011;58101;48.658;2.328;2023-02-20T13:05:18;11.32;;;3.60;;
70549;SDS011;58101;48.658;2.328;2023-02-20T13:18:11;6.97;;;2.10;;
70549;SDS011;58101;48.658;2.328;2023-02-20T13:21:03;10.27;;;2.20;;
70549;SDS011;58101;48.658;2.328;2023-02-20T13:23:34;7.57;;;2.00;;
70549;SDS011;58101;48.658;2.328;2023-02-20T13:29:09;7.50;;;1.65;;
70549;SDS011;58101;48.658;2.328;2023-02-20T13:46:57;9.75;;;2.00;;
70549;SDS011;58101;48.658;2.328;2023-02-20T13:55:01;8.52;;;2.00;;
70549;SDS011;58101;48.658;2.328;2023-02-20T13:58:01;8.85;;;2.03;;
70549;SDS011;58101;48.658;2.328;2023-02-20T14:03:23;8.77;;;2.28;;
70549;SDS011;58101;48.658;2.328;2023-02-20T14:06:05;11.13;;;2.22;;
70549;SDS011;58101;48.658;2.328;2023-02-20T14:08:37;7.90;;;2.28;;
70549;SDS011;58101;48.658;2.328;2023-02-20T14:11:06;9.02;;;2.28;;
70549;SDS011;58101;48.658;2.328;2023-02-20T14:13:41;8.93;;;2.80;;
70549;SDS011;58101;48.658;2.328;2023-02-20T14:19:33;11.25;;;3.15;;
70549;SDS011;58101;48.658;2.328;2023-02-20T14:24:44;9.07;;;3.40;;
70549;SDS011;58101;48.658;2.328;2023-02-20T14:27:26;9.88;;;3.70;;
70549;SDS011;58101;48.658;2.328;2023-02-20T14:32:37;10.40;;;3.22;;
70549;SDS011;58101;48.658;2.328;2023-02-20T14:40:36;10.63;;;3.28;;
70549;SDS011;58101;48.658;2.328;2023-02-20T14:43:08;13.77;;;3.33;;
70549;SDS011;58101;48.658;2.328;2023-02-20T14:45:43;9.32;;;2.97;;
70549;SDS011;58101;48.658;2.328;2023-02-20T14:48:23;8.43;;;3.10;;
70549;SDS011;58101;48.658;2.328;2023-02-20T14:53:37;12.25;;;3.40;;
70549;SDS011;58101;48.658;2.328;2023-02-20T14:56:10;10.82;;;3.40;;
70549;SDS011;58101;48.658;2.328;2023-02-20T14:58:41;11.38;;;3.28;;
70549;SDS011;58101;48.658;2.328;2023-02-20T15:01:16;11.27;;;3.40;;
70549;SDS011;58101;48.658;2.328;2023-02-20T15:03:59;9.70;;;3.50;;
70549;SDS011;58101;48.658;2.328;2023-02-20T15:06:37;10.13;;;3.08;;
70549;SDS011;58101;48.658;2.328;2023-02-20T15:09:05;11.00;;;3.70;;
70549;SDS011;58101;48.658;2.328;2023-02-20T15:11:32;12.07;;;4.10;;
70549;SDS011;58101;48.658;2.328;2023-02-20T15:13:59;9.98;;;3.17;;
70549;SDS011;58101;48.658;2.328;2023-02-20T15:16:27;9.88;;;3.10;;
70549;SDS011;58101;48.658;2.328;2023-02-20T15:18:59;9.13;;;3.40;;
70549;SDS011;58101;48.658;2.328;2023-02-20T15:21:41;9.23;;;3.00;;
70549;SDS011;58101;48.658;2.328;2023-02-20T15:24:10;9.95;;;3.35;;
70549;SDS011;58101;48.658;2.328;2023-02-20T15:26:38;12.50;;;4.22;;
70549;SDS011;58101;48.658;2.328;2023-02-20T15:34:28;11.32;;;4.43;;
70549;SDS011;58101;48.658;2.328;2023-02-20T15:42:44;10.77;;;3.88;;
70549;SDS011;58101;48.658;2.328;2023-02-20T15:48:32;12.13;;;4.78;;
70549;SDS011;58101;48.658;2.328;2023-02-20T15:50:58;13.18;;;5.63;;
70549;SDS011;58101;48.658;2.328;2023-02-20T15:56:50;13.85;;;5.03;;
70549;SDS011;58101;48.658;2.328;2023-02-20T15:59:16;13.77;;;6.00;;
70549;SDS011;58101;48.658;2.328;2023-02-20T16:01:57;17.33;;;5.20;;
70549;SDS011;58101;48.658;2.328;2023-02-20T16:04:22;11.00;;;4.18;;
70549;SDS011;58101;48.658;2.328;2023-02-20T16:10:18;9.25;;;3.47;;
70549;SDS011;58101;48.658;2.328;2023-02-20T16:12:48;11.25;;;3.92;;
70549;SDS011;58101;48.658;2.328;2023-02-20T16:15:20;11.23;;;4.35;;
70549;SDS011;58101;48.658;2.328;2023-02-20T16:17:49;11.88;;;4.55;;
70549;SDS011;58101;48.658;2.328;2023-02-20T16:20:15;8.85;;;3.53;;
70549;SDS011;58101;48.658;2.328;2023-02-20T16:22:43;9.75;;;4.20;;
70549;SDS011;58101;48.658;2.328;2023-02-20T16:25:12;10.80;;;3.80;;
70549;SDS011;58101;48.658;2.328;2023-02-20T16:27:40;11.98;;;5.18;;
70549;SDS011;58101;48.658;2.328;2023-02-20T16:30:15;12.40;;;3.95;;
70549;SDS011;58101;48.658;2.328;2023-02-20T16:35:16;10.00;;;3.28;;
70549;SDS011;58101;48.658;2.328;2023-02-20T16:37:41;11.77;;;3.85;;
70549;SDS011;58101;48.658;2.328;2023-02-20T16:40:07;10.95;;;3.65;;
70549;SDS011;58101;48.658;2.328;2023-02-20T16:42:34;12.43;;;3.53;;
70549;SDS011;58101;48.658;2.328;2023-02-20T16:45:05;11.32;;;3.38;;
70549;SDS011;58101;48.658;2.328;2023-02-20T16:47:30;11.77;;;3.75;;
70549;SDS011;58101;48.658;2.328;2023-02-20T16:49:56;10.75;;;3.35;;
70549;SDS011;58101;48.658;2.328;2023-02-20T16:52:26;9.73;;;3.33;;
70549;SDS011;58101;48.658;2.328;2023-02-20T16:54:54;10.85;;;3.50;;
70549;SDS011;58101;48.658;2.328;2023-02-20T16:57:21;10.05;;;3.00;;
70549;SDS011;58101;48.658;2.328;2023-02-20T16:59:52;12.45;;;2.90;;
70549;SDS011;58101;48.658;2.328;2023-02-20T17:02:24;9.55;;;2.80;;
70549;SDS011;58101;48.658;2.328;2023-02-20T17:04:52;12.63;;;2.70;;
70549;SDS011;58101;48.658;2.328;2023-02-20T17:07:18;11.20;;;2.50;;
70549;SDS011;58101;48.658;2.328;2023-02-20T17:09:44;8.32;;;2.35;;
70549;SDS011;58101;48.658;2.328;2023-02-20T17:12:10;10.77;;;2.80;;
70549;SDS011;58101;48.658;2.328;2023-02-20T17:14:37;9.90;;;2.60;;
70549;SDS011;58101;48.658;2.328;2023-02-20T17:17:03;7.25;;;2.20;;
70549;SDS011;58101;48.658;2.328;2023-02-20T17:19:30;9.27;;;2.58;;
70549;SDS011;58101;48.658;2.328;2023-02-20T17:21:56;9.45;;;2.40;;
70549;SDS011;58101;48.658;2.328;2023-02-20T17:24:23;7.85;;;2.25;;
70549;SDS011;58101;48.658;2.328;2023-02-20T17:26:49;9.10;;;2.30;;
70549;SDS011;58101;48.658;2.328;2023-02-20T17:29:14;8.85;;;2.33;;
70549;SDS011;58101;48.658;2.328;2023-02-20T17:31:40;9.68;;;2.40;;
70549;SDS011;58101;48.658;2.328;2023-02-20T17:34:06;7.43;;;2.22;;
70549;SDS011;58101;48.658;2.328;2023-02-20T17:36:32;6.85;;;2.10;;
70549;SDS011;58101;48.658;2.328;2023-02-20T17:38:58;8.52;;;2.47;;
70549;SDS011;58101;48.658;2.328;2023-02-20T17:41:23;8.00;;;2.30;;
70549;SDS011;58101;48.658;2.328;2023-02-20T17:43:49;9.35;;;2.50;;
70549;SDS011;58101;48.658;2.328;2023-02-20T17:46:15;7.07;;;2.53;;
70549;SDS011;58101;48.658;2.328;2023-02-20T17:48:41;11.43;;;2.80;;
70549;SDS011;58101;48.658;2.328;2023-02-20T17:51:07;9.63;;;2.40;;
70549;SDS011;58101;48.658;2.328;2023-02-20T17:53:33;11.90;;;4.25;;
70549;SDS011;58101;48.658;2.328;2023-02-20T17:58:37;12.70;;;4.25;;
70549;SDS011;58101;48.658;2.328;2023-02-20T18:01:41;10.70;;;4.53;;
70549;SDS011;58101;48.658;2.328;2023-02-20T18:04:07;9.45;;;4.00;;
70549;SDS011;58101;48.658;2.328;2023-02-20T18:06:34;12.82;;;3.97;;
70549;SDS011;58101;48.658;2.328;2023-02-20T18:09:03;12.65;;;4.10;;
70549;SDS011;58101;48.658;2.328;2023-02-20T18:11:30;11.68;;;4.70;;
70549;SDS011;58101;48.658;2.328;2023-02-20T18:13:56;14.20;;;4.80;;
70549;SDS011;58101;48.658;2.328;2023-02-20T18:16:22;12.85;;;4.57;;
70549;SDS011;58101;48.658;2.328;2023-02-20T18:18:50;16.85;;;5.22;;
70549;SDS011;58101;48.658;2.328;2023-02-20T18:21:23;15.80;;;4.78;;